sensor_id;sensor_type;location;lat;lon;timestamp;P1;durP1;ratioP1;P2;durP2;ratioP2
15192;SDS011;7697;51.630;7.484;2022-09-09T00:00:35;4.35;;;1.67;;
15192;SDS011;7697;51.630;7.484;2022-09-09T00:05:42;1.80;;;1.25;;
15192;SDS011;7697;51.630;7.484;2022-09-09T00:10:51;8.02;;;1.67;;
15192;SDS011;7697;51.630;7.484;2022-09-09T00:16:02;2.25;;;1.40;;
15192;SDS011;7697;51.630;7.484;2022-09-09T00:21:11;1.25;;;0.90;;
15192;SDS011;7697;51.630;7.484;2022-09-09T00:26:16;1.52;;;0.90;;
15192;SDS011;7697;51.630;7.484;2022-09-09T00:31:26;2.05;;;1.00;;
15192;SDS011;7697;51.630;7.484;2022-09-09T00:36:31;1.50;;;0.90;;
15192;SDS011;7697;51.630;7.484;2022-09-09T00:41:38;1.38;;;0.98;;
15192;SDS011;7697;51.630;7.484;2022-09-09T00:46:56;1.75;;;1.13;;
15192;SDS011;7697;51.630;7.484;2022-09-09T00:52:08;1.70;;;1.35;;
15192;SDS011;7697;51.630;7.484;2022-09-09T00:57:25;2.63;;;1.20;;
15192;SDS011;7697;51.630;7.484;2022-09-09T01:02:31;1.65;;;1.17;;
15192;SDS011;7697;51.630;7.484;2022-09-09T01:07:40;1.83;;;1.08;;
15192;SDS011;7697;51.630;7.484;2022-09-09T01:12:48;1.83;;;1.08;;
15192;SDS011;7697;51.630;7.484;2022-09-09T01:17:56;1.48;;;1.10;;
15192;SDS011;7697;51.630;7.484;2022-09-09T01:23:10;0.90;;;0.70;;
15192;SDS011;7697;51.630;7.484;2022-09-09T01:28:36;1.63;;;1.00;;
15192;SDS011;7697;51.630;7.484;2022-09-09T01:33:39;1.10;;;0.90;;
15192;SDS011;7697;51.630;7.484;2022-09-09T01:38:41;1.73;;;1.05;;
15192;SDS011;7697;51.630;7.484;2022-09-09T01:43:44;1.60;;;1.10;;
15192;SDS011;7697;51.630;7.484;2022-09-09T01:48:46;2.10;;;0.90;;
15192;SDS011;7697;51.630;7.484;2022-09-09T01:53:48;1.85;;;1.30;;
15192;SDS011;7697;51.630;7.484;2022-09-09T01:59:01;1.35;;;1.10;;
15192;SDS011;7697;51.630;7.484;2022-09-09T02:04:12;1.48;;;1.17;;
15192;SDS011;7697;51.630;7.484;2022-09-09T02:09:25;1.50;;;0.95;;
15192;SDS011;7697;51.630;7.484;2022-09-09T02:14:30;1.20;;;1.10;;
15192;SDS011;7697;51.630;7.484;2022-09-09T02:19:39;1.00;;;0.93;;
15192;SDS011;7697;51.630;7.484;2022-09-09T02:24:48;2.33;;;1.00;;
15192;SDS011;7697;51.630;7.484;2022-09-09T02:29:56;1.00;;;0.90;;
15192;SDS011;7697;51.630;7.484;2022-09-09T02:35:03;1.40;;;1.10;;
15192;SDS011;7697;51.630;7.484;2022-09-09T02:40:09;1.23;;;1.13;;
15192;SDS011;7697;51.630;7.484;2022-09-09T02:45:15;4.75;;;1.20;;
15192;SDS011;7697;51.630;7.484;2022-09-09T02:50:19;2.58;;;1.45;;
15192;SDS011;7697;51.630;7.484;2022-09-09T02:55:29;1.40;;;1.20;;
15192;SDS011;7697;51.630;7.484;2022-09-09T03:00:40;1.95;;;1.05;;
15192;SDS011;7697;51.630;7.484;2022-09-09T03:05:42;1.10;;;1.00;;
15192;SDS011;7697;51.630;7.484;2022-09-09T03:10:44;1.70;;;1.30;;
15192;SDS011;7697;51.630;7.484;2022-09-09T03:15:47;1.95;;;1.30;;
15192;SDS011;7697;51.630;7.484;2022-09-09T03:20:49;1.50;;;1.38;;
15192;SDS011;7697;51.630;7.484;2022-09-09T03:25:51;1.85;;;1.05;;
15192;SDS011;7697;51.630;7.484;2022-09-09T03:31:00;1.77;;;1.35;;
15192;SDS011;7697;51.630;7.484;2022-09-09T03:36:03;2.38;;;1.40;;
15192;SDS011;7697;51.630;7.484;2022-09-09T03:41:05;1.50;;;1.23;;
15192;SDS011;7697;51.630;7.484;2022-09-09T03:46:09;1.15;;;1.05;;
15192;SDS011;7697;51.630;7.484;2022-09-09T03:51:10;1.98;;;1.30;;
15192;SDS011;7697;51.630;7.484;2022-09-09T03:56:12;1.88;;;1.40;;
15192;SDS011;7697;51.630;7.484;2022-09-09T04:01:15;1.70;;;1.10;;
15192;SDS011;7697;51.630;7.484;2022-09-09T04:06:17;2.55;;;1.27;;
15192;SDS011;7697;51.630;7.484;2022-09-09T04:11:21;2.90;;;1.30;;
15192;SDS011;7697;51.630;7.484;2022-09-09T04:16:24;1.40;;;1.25;;
15192;SDS011;7697;51.630;7.484;2022-09-09T04:21:26;2.42;;;1.23;;
15192;SDS011;7697;51.630;7.484;2022-09-09T04:26:27;2.33;;;1.25;;
15192;SDS011;7697;51.630;7.484;2022-09-09T04:31:30;3.25;;;1.45;;
15192;SDS011;7697;51.630;7.484;2022-09-09T04:36:32;1.25;;;1.10;;
15192;SDS011;7697;51.630;7.484;2022-09-09T04:41:34;2.20;;;1.38;;
15192;SDS011;7697;51.630;7.484;2022-09-09T04:46:37;1.80;;;1.25;;
15192;SDS011;7697;51.630;7.484;2022-09-09T04:51:39;2.40;;;1.30;;
15192;SDS011;7697;51.630;7.484;2022-09-09T04:56:40;2.83;;;1.40;;
15192;SDS011;7697;51.630;7.484;2022-09-09T05:01:44;3.25;;;1.38;;
15192;SDS011;7697;51.630;7.484;2022-09-09T05:06:46;2.65;;;1.65;;
15192;SDS011;7697;51.630;7.484;2022-09-09T05:11:48;2.00;;;1.55;;
15192;SDS011;7697;51.630;7.484;2022-09-09T05:16:51;2.42;;;1.55;;
15192;SDS011;7697;51.630;7.484;2022-09-09T05:21:53;2.05;;;1.33;;
15192;SDS011;7697;51.630;7.484;2022-09-09T05:26:55;3.00;;;1.63;;
15192;SDS011;7697;51.630;7.484;2022-09-09T05:32:01;2.20;;;1.35;;
15192;SDS011;7697;51.630;7.484;2022-09-09T05:37:03;1.40;;;1.15;;
15192;SDS011;7697;51.630;7.484;2022-09-09T05:42:05;2.17;;;1.20;;
15192;SDS011;7697;51.630;7.484;2022-09-09T05:47:08;3.00;;;1.63;;
15192;SDS011;7697;51.630;7.484;2022-09-09T05:52:10;3.55;;;1.60;;
15192;SDS011;7697;51.630;7.484;2022-09-09T05:57:11;3.00;;;2.08;;
15192;SDS011;7697;51.630;7.484;2022-09-09T06:02:14;2.40;;;1.63;;
15192;SDS011;7697;51.630;7.484;2022-09-09T06:07:16;2.17;;;1.45;;
15192;SDS011;7697;51.630;7.484;2022-09-09T06:12:18;4.00;;;1.42;;
15192;SDS011;7697;51.630;7.484;2022-09-09T06:17:22;3.63;;;1.50;;
15192;SDS011;7697;51.630;7.484;2022-09-09T06:22:23;4.20;;;1.60;;
15192;SDS011;7697;51.630;7.484;2022-09-09T06:27:26;4.95;;;1.85;;
15192;SDS011;7697;51.630;7.484;2022-09-09T06:32:30;4.15;;;2.05;;
15192;SDS011;7697;51.630;7.484;2022-09-09T06:37:33;4.18;;;1.90;;
15192;SDS011;7697;51.630;7.484;2022-09-09T06:42:34;2.85;;;1.38;;
15192;SDS011;7697;51.630;7.484;2022-09-09T06:47:37;3.30;;;1.73;;
15192;SDS011;7697;51.630;7.484;2022-09-09T06:52:39;4.15;;;1.60;;
15192;SDS011;7697;51.630;7.484;2022-09-09T06:57:40;2.70;;;1.58;;
15192;SDS011;7697;51.630;7.484;2022-09-09T07:02:44;2.75;;;1.63;;
15192;SDS011;7697;51.630;7.484;2022-09-09T07:07:45;2.70;;;1.45;;
15192;SDS011;7697;51.630;7.484;2022-09-09T07:12:49;2.53;;;1.42;;
15192;SDS011;7697;51.630;7.484;2022-09-09T07:17:53;4.95;;;1.80;;
15192;SDS011;7697;51.630;7.484;2022-09-09T07:22:55;3.28;;;1.95;;
15192;SDS011;7697;51.630;7.484;2022-09-09T07:27:58;3.83;;;1.77;;
15192;SDS011;7697;51.630;7.484;2022-09-09T07:33:01;3.92;;;1.60;;
15192;SDS011;7697;51.630;7.484;2022-09-09T07:38:03;3.75;;;1.60;;
15192;SDS011;7697;51.630;7.484;2022-09-09T07:43:06;2.97;;;1.58;;
15192;SDS011;7697;51.630;7.484;2022-09-09T07:48:10;4.60;;;1.75;;
15192;SDS011;7697;51.630;7.484;2022-09-09T07:53:11;4.47;;;1.70;;
15192;SDS011;7697;51.630;7.484;2022-09-09T07:58:13;3.10;;;1.45;;
15192;SDS011;7697;51.630;7.484;2022-09-09T08:03:16;1.95;;;1.27;;
15192;SDS011;7697;51.630;7.484;2022-09-09T08:08:18;2.33;;;1.33;;
15192;SDS011;7697;51.630;7.484;2022-09-09T08:13:19;3.40;;;1.50;;
15192;SDS011;7697;51.630;7.484;2022-09-09T08:18:22;4.53;;;1.60;;
15192;SDS011;7697;51.630;7.484;2022-09-09T08:23:24;2.95;;;1.58;;
15192;SDS011;7697;51.630;7.484;2022-09-09T08:28:26;3.97;;;1.60;;
15192;SDS011;7697;51.630;7.484;2022-09-09T08:33:29;3.92;;;1.42;;
15192;SDS011;7697;51.630;7.484;2022-09-09T08:38:30;3.95;;;1.65;;
15192;SDS011;7697;51.630;7.484;2022-09-09T08:43:33;2.90;;;1.40;;
15192;SDS011;7697;51.630;7.484;2022-09-09T08:48:43;4.68;;;1.50;;
15192;SDS011;7697;51.630;7.484;2022-09-09T08:53:52;3.58;;;1.52;;
15192;SDS011;7697;51.630;7.484;2022-09-09T08:58:56;2.35;;;1.08;;
15192;SDS011;7697;51.630;7.484;2022-09-09T09:04:02;2.50;;;1.50;;
15192;SDS011;7697;51.630;7.484;2022-09-09T09:09:17;6.22;;;1.50;;
15192;SDS011;7697;51.630;7.484;2022-09-09T09:14:25;3.60;;;1.50;;
15192;SDS011;7697;51.630;7.484;2022-09-09T09:19:29;4.35;;;1.77;;
15192;SDS011;7697;51.630;7.484;2022-09-09T09:24:35;2.42;;;1.70;;
15192;SDS011;7697;51.630;7.484;2022-09-09T09:29:45;4.78;;;1.70;;
15192;SDS011;7697;51.630;7.484;2022-09-09T09:34:52;4.75;;;1.80;;
15192;SDS011;7697;51.630;7.484;2022-09-09T09:40:07;3.75;;;1.70;;
15192;SDS011;7697;51.630;7.484;2022-09-09T09:45:14;2.78;;;1.60;;
15192;SDS011;7697;51.630;7.484;2022-09-09T09:50:23;3.03;;;1.85;;
15192;SDS011;7697;51.630;7.484;2022-09-09T09:55:24;3.67;;;1.90;;
15192;SDS011;7697;51.630;7.484;2022-09-09T10:00:27;2.63;;;1.45;;
15192;SDS011;7697;51.630;7.484;2022-09-09T10:05:30;9.38;;;2.10;;
15192;SDS011;7697;51.630;7.484;2022-09-09T10:10:40;5.25;;;2.42;;
15192;SDS011;7697;51.630;7.484;2022-09-09T10:15:53;3.08;;;2.00;;
15192;SDS011;7697;51.630;7.484;2022-09-09T10:21:06;3.95;;;1.55;;
15192;SDS011;7697;51.630;7.484;2022-09-09T10:26:22;4.85;;;1.63;;
15192;SDS011;7697;51.630;7.484;2022-09-09T10:31:37;3.40;;;1.50;;
15192;SDS011;7697;51.630;7.484;2022-09-09T10:36:50;2.17;;;1.35;;
15192;SDS011;7697;51.630;7.484;2022-09-09T10:41:54;3.70;;;1.70;;
15192;SDS011;7697;51.630;7.484;2022-09-09T10:47:14;2.88;;;1.38;;
15192;SDS011;7697;51.630;7.484;2022-09-09T10:52:28;4.28;;;1.50;;
15192;SDS011;7697;51.630;7.484;2022-09-09T10:57:39;3.65;;;1.45;;
15192;SDS011;7697;51.630;7.484;2022-09-09T11:02:44;3.65;;;1.50;;
15192;SDS011;7697;51.630;7.484;2022-09-09T11:07:52;3.58;;;1.40;;
15192;SDS011;7697;51.630;7.484;2022-09-09T11:12:59;2.88;;;1.52;;
15192;SDS011;7697;51.630;7.484;2022-09-09T11:18:05;2.90;;;1.30;;
15192;SDS011;7697;51.630;7.484;2022-09-09T11:23:11;2.83;;;1.40;;
15192;SDS011;7697;51.630;7.484;2022-09-09T11:28:23;3.50;;;1.50;;
15192;SDS011;7697;51.630;7.484;2022-09-09T11:33:38;1.83;;;1.10;;
15192;SDS011;7697;51.630;7.484;2022-09-09T11:38:54;2.42;;;1.15;;
15192;SDS011;7697;51.630;7.484;2022-09-09T11:44:09;3.58;;;1.85;;
15192;SDS011;7697;51.630;7.484;2022-09-09T11:49:24;2.03;;;1.30;;
15192;SDS011;7697;51.630;7.484;2022-09-09T11:54:30;3.00;;;1.52;;
15192;SDS011;7697;51.630;7.484;2022-09-09T11:59:36;2.75;;;1.60;;
15192;SDS011;7697;51.630;7.484;2022-09-09T12:04:38;2.58;;;1.30;;
15192;SDS011;7697;51.630;7.484;2022-09-09T12:09:47;2.55;;;1.20;;
15192;SDS011;7697;51.630;7.484;2022-09-09T12:14:59;3.42;;;1.50;;
15192;SDS011;7697;51.630;7.484;2022-09-09T12:20:06;2.40;;;1.25;;
15192;SDS011;7697;51.630;7.484;2022-09-09T12:25:18;1.85;;;1.02;;
15192;SDS011;7697;51.630;7.484;2022-09-09T12:30:28;3.47;;;1.30;;
15192;SDS011;7697;51.630;7.484;2022-09-09T12:35:34;2.28;;;1.27;;
15192;SDS011;7697;51.630;7.484;2022-09-09T12:40:40;2.08;;;1.10;;
15192;SDS011;7697;51.630;7.484;2022-09-09T12:45:41;1.50;;;0.95;;
15192;SDS011;7697;51.630;7.484;2022-09-09T12:50:43;1.38;;;1.00;;
15192;SDS011;7697;51.630;7.484;2022-09-09T12:55:50;1.40;;;0.95;;
15192;SDS011;7697;51.630;7.484;2022-09-09T13:00:54;2.63;;;1.05;;
15192;SDS011;7697;51.630;7.484;2022-09-09T13:05:57;4.57;;;1.42;;
15192;SDS011;7697;51.630;7.484;2022-09-09T13:11:12;1.48;;;1.10;;
15192;SDS011;7697;51.630;7.484;2022-09-09T13:16:19;2.05;;;1.17;;
15192;SDS011;7697;51.630;7.484;2022-09-09T13:21:30;2.75;;;1.20;;
15192;SDS011;7697;51.630;7.484;2022-09-09T13:26:35;2.55;;;1.20;;
15192;SDS011;7697;51.630;7.484;2022-09-09T13:31:39;2.42;;;1.10;;
15192;SDS011;7697;51.630;7.484;2022-09-09T13:36:41;3.60;;;1.30;;
15192;SDS011;7697;51.630;7.484;2022-09-09T13:41:50;2.58;;;1.40;;
15192;SDS011;7697;51.630;7.484;2022-09-09T13:46:59;2.42;;;1.30;;
15192;SDS011;7697;51.630;7.484;2022-09-09T13:52:03;2.92;;;1.02;;
15192;SDS011;7697;51.630;7.484;2022-09-09T13:57:15;1.33;;;0.88;;
15192;SDS011;7697;51.630;7.484;2022-09-09T14:02:18;2.47;;;1.40;;
15192;SDS011;7697;51.630;7.484;2022-09-09T14:07:21;4.32;;;1.30;;
15192;SDS011;7697;51.630;7.484;2022-09-09T14:12:24;2.63;;;1.25;;
15192;SDS011;7697;51.630;7.484;2022-09-09T14:17:26;1.98;;;1.20;;
15192;SDS011;7697;51.630;7.484;2022-09-09T14:22:31;2.55;;;1.55;;
15192;SDS011;7697;51.630;7.484;2022-09-09T14:27:34;3.37;;;1.70;;
15192;SDS011;7697;51.630;7.484;2022-09-09T14:32:35;2.58;;;1.38;;
15192;SDS011;7697;51.630;7.484;2022-09-09T14:37:37;2.33;;;1.23;;
15192;SDS011;7697;51.630;7.484;2022-09-09T14:42:40;1.58;;;1.02;;
15192;SDS011;7697;51.630;7.484;2022-09-09T14:47:42;2.33;;;1.33;;
15192;SDS011;7697;51.630;7.484;2022-09-09T14:52:44;2.13;;;1.33;;
15192;SDS011;7697;51.630;7.484;2022-09-09T14:57:46;1.70;;;1.13;;
15192;SDS011;7697;51.630;7.484;2022-09-09T15:02:51;2.60;;;1.20;;
15192;SDS011;7697;51.630;7.484;2022-09-09T15:07:53;2.65;;;1.00;;
15192;SDS011;7697;51.630;7.484;2022-09-09T15:12:56;1.95;;;1.17;;
15192;SDS011;7697;51.630;7.484;2022-09-09T15:17:57;1.33;;;0.95;;
15192;SDS011;7697;51.630;7.484;2022-09-09T15:22:59;1.88;;;1.20;;
15192;SDS011;7697;51.630;7.484;2022-09-09T15:28:02;3.95;;;1.45;;
15192;SDS011;7697;51.630;7.484;2022-09-09T15:33:07;2.25;;;1.02;;
15192;SDS011;7697;51.630;7.484;2022-09-09T15:38:09;1.73;;;0.98;;
15192;SDS011;7697;51.630;7.484;2022-09-09T15:43:14;3.00;;;1.20;;
15192;SDS011;7697;51.630;7.484;2022-09-09T15:48:16;4.28;;;1.77;;
15192;SDS011;7697;51.630;7.484;2022-09-09T15:53:19;6.43;;;2.33;;
15192;SDS011;7697;51.630;7.484;2022-09-09T15:58:22;4.20;;;1.60;;
15192;SDS011;7697;51.630;7.484;2022-09-09T16:03:24;3.47;;;1.20;;
15192;SDS011;7697;51.630;7.484;2022-09-09T16:08:31;2.88;;;1.13;;
15192;SDS011;7697;51.630;7.484;2022-09-09T16:13:35;3.00;;;1.70;;
15192;SDS011;7697;51.630;7.484;2022-09-09T16:18:38;0.65;;;0.65;;
15192;SDS011;7697;51.630;7.484;2022-09-09T16:23:40;2.50;;;1.00;;
15192;SDS011;7697;51.630;7.484;2022-09-09T16:28:44;1.25;;;0.88;;
15192;SDS011;7697;51.630;7.484;2022-09-09T16:33:47;0.68;;;0.63;;
15192;SDS011;7697;51.630;7.484;2022-09-09T16:38:51;1.10;;;1.00;;
15192;SDS011;7697;51.630;7.484;2022-09-09T16:43:56;1.50;;;1.20;;
15192;SDS011;7697;51.630;7.484;2022-09-09T16:48:59;2.47;;;1.20;;
15192;SDS011;7697;51.630;7.484;2022-09-09T16:54:03;1.55;;;1.08;;
15192;SDS011;7697;51.630;7.484;2022-09-09T16:59:09;3.83;;;1.20;;
15192;SDS011;7697;51.630;7.484;2022-09-09T17:04:12;2.85;;;1.10;;
15192;SDS011;7697;51.630;7.484;2022-09-09T17:09:20;2.90;;;1.90;;
15192;SDS011;7697;51.630;7.484;2022-09-09T17:14:24;3.92;;;1.85;;
15192;SDS011;7697;51.630;7.484;2022-09-09T17:19:26;3.20;;;1.65;;
15192;SDS011;7697;51.630;7.484;2022-09-09T17:24:28;3.13;;;1.52;;
15192;SDS011;7697;51.630;7.484;2022-09-09T17:29:31;3.15;;;1.80;;
15192;SDS011;7697;51.630;7.484;2022-09-09T17:34:35;3.17;;;1.60;;
15192;SDS011;7697;51.630;7.484;2022-09-09T17:39:37;2.20;;;1.65;;
15192;SDS011;7697;51.630;7.484;2022-09-09T17:44:41;1.70;;;1.20;;
15192;SDS011;7697;51.630;7.484;2022-09-09T17:49:43;1.80;;;1.30;;
15192;SDS011;7697;51.630;7.484;2022-09-09T17:54:44;2.38;;;1.45;;
15192;SDS011;7697;51.630;7.484;2022-09-09T17:59:48;3.08;;;1.40;;
15192;SDS011;7697;51.630;7.484;2022-09-09T18:04:49;2.65;;;1.75;;
15192;SDS011;7697;51.630;7.484;2022-09-09T18:09:51;1.52;;;1.17;;
15192;SDS011;7697;51.630;7.484;2022-09-09T18:14:54;2.53;;;1.35;;
15192;SDS011;7697;51.630;7.484;2022-09-09T18:19:55;2.13;;;1.40;;
15192;SDS011;7697;51.630;7.484;2022-09-09T18:24:57;2.53;;;1.50;;
15192;SDS011;7697;51.630;7.484;2022-09-09T18:30:00;2.92;;;1.60;;
15192;SDS011;7697;51.630;7.484;2022-09-09T18:35:02;1.75;;;1.40;;
15192;SDS011;7697;51.630;7.484;2022-09-09T18:40:04;3.13;;;1.80;;
15192;SDS011;7697;51.630;7.484;2022-09-09T18:45:08;1.85;;;1.45;;
15192;SDS011;7697;51.630;7.484;2022-09-09T18:50:10;3.30;;;1.55;;
15192;SDS011;7697;51.630;7.484;2022-09-09T18:55:11;2.85;;;1.52;;
15192;SDS011;7697;51.630;7.484;2022-09-09T19:00:14;2.28;;;1.45;;
15192;SDS011;7697;51.630;7.484;2022-09-09T19:05:16;2.42;;;1.52;;
15192;SDS011;7697;51.630;7.484;2022-09-09T19:10:18;2.75;;;1.70;;
15192;SDS011;7697;51.630;7.484;2022-09-09T19:15:20;3.00;;;1.52;;
15192;SDS011;7697;51.630;7.484;2022-09-09T19:20:23;4.00;;;1.50;;
15192;SDS011;7697;51.630;7.484;2022-09-09T19:25:25;3.63;;;1.50;;
15192;SDS011;7697;51.630;7.484;2022-09-09T19:30:28;2.38;;;1.45;;
15192;SDS011;7697;51.630;7.484;2022-09-09T19:35:30;2.47;;;1.60;;
15192;SDS011;7697;51.630;7.484;2022-09-09T19:40:33;2.55;;;1.40;;
15192;SDS011;7697;51.630;7.484;2022-09-09T19:45:37;2.28;;;1.50;;
15192;SDS011;7697;51.630;7.484;2022-09-09T19:50:38;1.40;;;1.30;;
15192;SDS011;7697;51.630;7.484;2022-09-09T19:55:40;2.28;;;1.45;;
15192;SDS011;7697;51.630;7.484;2022-09-09T20:00:43;2.03;;;1.40;;
15192;SDS011;7697;51.630;7.484;2022-09-09T20:05:45;1.55;;;1.23;;
15192;SDS011;7697;51.630;7.484;2022-09-09T20:10:51;2.45;;;1.38;;
15192;SDS011;7697;51.630;7.484;2022-09-09T20:15:59;2.63;;;1.55;;
15192;SDS011;7697;51.630;7.484;2022-09-09T20:21:03;2.47;;;1.33;;
15192;SDS011;7697;51.630;7.484;2022-09-09T20:26:06;2.38;;;1.33;;
15192;SDS011;7697;51.630;7.484;2022-09-09T20:31:15;1.95;;;1.40;;
15192;SDS011;7697;51.630;7.484;2022-09-09T20:36:19;3.80;;;2.28;;
15192;SDS011;7697;51.630;7.484;2022-09-09T20:41:22;2.63;;;1.88;;
15192;SDS011;7697;51.630;7.484;2022-09-09T20:46:28;3.53;;;2.25;;
15192;SDS011;7697;51.630;7.484;2022-09-09T20:51:33;2.22;;;1.30;;
15192;SDS011;7697;51.630;7.484;2022-09-09T20:56:37;3.58;;;1.80;;
15192;SDS011;7697;51.630;7.484;2022-09-09T21:01:42;2.97;;;1.70;;
15192;SDS011;7697;51.630;7.484;2022-09-09T21:06:46;1.88;;;1.55;;
15192;SDS011;7697;51.630;7.484;2022-09-09T21:11:50;2.20;;;1.45;;
15192;SDS011;7697;51.630;7.484;2022-09-09T21:16:53;2.15;;;1.55;;
15192;SDS011;7697;51.630;7.484;2022-09-09T21:21:55;3.60;;;1.83;;
15192;SDS011;7697;51.630;7.484;2022-09-09T21:26:57;2.33;;;1.80;;
15192;SDS011;7697;51.630;7.484;2022-09-09T21:32:01;2.63;;;1.50;;
15192;SDS011;7697;51.630;7.484;2022-09-09T21:37:03;4.15;;;1.58;;
15192;SDS011;7697;51.630;7.484;2022-09-09T21:42:05;2.13;;;1.63;;
15192;SDS011;7697;51.630;7.484;2022-09-09T21:47:08;1.65;;;1.40;;
15192;SDS011;7697;51.630;7.484;2022-09-09T21:52:10;3.25;;;1.83;;
15192;SDS011;7697;51.630;7.484;2022-09-09T21:57:12;2.97;;;2.00;;
15192;SDS011;7697;51.630;7.484;2022-09-09T22:02:15;3.42;;;2.20;;
15192;SDS011;7697;51.630;7.484;2022-09-09T22:07:19;4.25;;;2.45;;
15192;SDS011;7697;51.630;7.484;2022-09-09T22:12:20;4.15;;;2.05;;
15192;SDS011;7697;51.630;7.484;2022-09-09T22:17:23;3.53;;;1.90;;
15192;SDS011;7697;51.630;7.484;2022-09-09T22:22:25;4.50;;;1.67;;
15192;SDS011;7697;51.630;7.484;2022-09-09T22:27:27;2.13;;;1.60;;
15192;SDS011;7697;51.630;7.484;2022-09-09T22:32:30;2.60;;;1.88;;
15192;SDS011;7697;51.630;7.484;2022-09-09T22:37:32;3.05;;;1.95;;
15192;SDS011;7697;51.630;7.484;2022-09-09T22:42:34;4.85;;;2.00;;
15192;SDS011;7697;51.630;7.484;2022-09-09T22:47:37;2.80;;;1.67;;
15192;SDS011;7697;51.630;7.484;2022-09-09T22:52:41;2.97;;;1.80;;
15192;SDS011;7697;51.630;7.484;2022-09-09T22:57:43;2.75;;;1.90;;
15192;SDS011;7697;51.630;7.484;2022-09-09T23:02:46;1.92;;;1.70;;
15192;SDS011;7697;51.630;7.484;2022-09-09T23:07:49;2.03;;;1.45;;
15192;SDS011;7697;51.630;7.484;2022-09-09T23:12:52;2.58;;;1.90;;
15192;SDS011;7697;51.630;7.484;2022-09-09T23:17:57;3.03;;;1.60;;
15192;SDS011;7697;51.630;7.484;2022-09-09T23:22:58;5.20;;;2.00;;
15192;SDS011;7697;51.630;7.484;2022-09-09T23:28:00;4.28;;;2.00;;
15192;SDS011;7697;51.630;7.484;2022-09-09T23:33:03;2.80;;;1.70;;
15192;SDS011;7697;51.630;7.484;2022-09-09T23:38:05;3.58;;;1.80;;
15192;SDS011;7697;51.630;7.484;2022-09-09T23:43:07;3.13;;;2.05;;
15192;SDS011;7697;51.630;7.484;2022-09-09T23:48:10;2.10;;;1.67;;
15192;SDS011;7697;51.630;7.484;2022-09-09T23:53:12;3.35;;;1.80;;
15192;SDS011;7697;51.630;7.484;2022-09-09T23:58:14;2.38;;;1.65;;
